sensor_id;sensor_type;location;lat;lon;timestamp;pressure;altitude;pressure_sealevel;temperature;humidity
6938;BME280;40040;42.706;23.372;2022-09-12T00:01:17;148198.13;;;16.33;100.00
6938;BME280;40040;42.706;23.372;2022-09-12T00:03:45;148199.31;;;16.34;100.00
6938;BME280;40040;42.706;23.372;2022-09-12T00:06:16;148188.19;;;16.29;100.00
6938;BME280;40040;42.706;23.372;2022-09-12T00:08:44;148172.09;;;16.23;100.00
6938;BME280;40040;42.706;23.372;2022-09-12T00:11:13;148163.41;;;16.19;100.00
6938;BME280;40040;42.706;23.372;2022-09-12T00:13:41;148153.50;;;16.15;100.00
6938;BME280;40040;42.706;23.372;2022-09-12T00:16:14;148159.72;;;16.18;100.00
6938;BME280;40040;42.706;23.372;2022-09-12T00:18:42;148045.72;;;15.71;100.00
6938;BME280;40040;42.706;23.372;2022-09-12T00:21:11;148162.16;;;16.19;100.00
6938;BME280;40040;42.706;23.372;2022-09-12T00:23:39;148138.59;;;16.09;100.00
6938;BME280;40040;42.706;23.372;2022-09-12T00:26:06;148134.88;;;16.08;100.00
6938;BME280;40040;42.706;23.372;2022-09-12T00:28:36;148139.84;;;16.10;100.00
6938;BME280;40040;42.706;23.372;2022-09-12T00:31:04;148123.75;;;16.03;100.00
6938;BME280;40040;42.706;23.372;2022-09-12T00:33:32;148060.59;;;15.77;100.00
6938;BME280;40040;42.706;23.372;2022-09-12T00:35:59;148122.50;;;16.03;100.00
6938;BME280;40040;42.706;23.372;2022-09-12T00:38:29;148110.13;;;15.98;100.00
6938;BME280;40040;42.706;23.372;2022-09-12T00:40:56;147992.44;;;15.50;100.00
6938;BME280;40040;42.706;23.372;2022-09-12T00:43:38;148012.28;;;15.58;100.00
6938;BME280;40040;42.706;23.372;2022-09-12T00:46:12;148059.34;;;15.77;100.00
6938;BME280;40040;42.706;23.372;2022-09-12T00:48:46;148043.25;;;15.70;100.00
6938;BME280;40040;42.706;23.372;2022-09-12T00:51:15;148029.63;;;15.65;100.00
6938;BME280;40040;42.706;23.372;2022-09-12T00:53:45;148028.38;;;15.64;100.00
6938;BME280;40040;42.706;23.372;2022-09-12T00:56:15;148025.91;;;15.63;100.00
6938;BME280;40040;42.706;23.372;2022-09-12T00:58:48;147897.09;;;15.11;100.00
6938;BME280;40040;42.706;23.372;2022-09-12T01:01:16;148006.06;;;15.55;100.00
6938;BME280;40040;42.706;23.372;2022-09-12T01:03:43;147996.19;;;15.51;100.00
6938;BME280;40040;42.706;23.372;2022-09-12T01:06:16;147983.78;;;15.46;100.00
6938;BME280;40040;42.706;23.372;2022-09-12T01:08:46;147999.91;;;15.53;100.00
6938;BME280;40040;42.706;23.372;2022-09-12T01:11:14;147987.53;;;15.48;100.00
6938;BME280;40040;42.706;23.372;2022-09-12T01:13:44;147988.72;;;15.48;100.00
6938;BME280;40040;42.706;23.372;2022-09-12T01:16:11;148001.13;;;15.53;100.00
6938;BME280;40040;42.706;23.372;2022-09-12T01:18:47;147999.91;;;15.53;100.00
6938;BME280;40040;42.706;23.372;2022-09-12T01:21:28;147986.28;;;15.47;100.00
6938;BME280;40040;42.706;23.372;2022-09-12T01:24:18;147996.19;;;15.51;100.00
6938;BME280;40040;42.706;23.372;2022-09-12T01:27:07;147991.25;;;15.49;100.00
6938;BME280;40040;42.706;23.372;2022-09-12T01:30:03;147978.84;;;15.44;100.00
6938;BME280;40040;42.706;23.372;2022-09-12T01:32:38;147983.78;;;15.46;100.00
6938;BME280;40040;42.706;23.372;2022-09-12T01:35:15;147986.28;;;15.47;100.00
6938;BME280;40040;42.706;23.372;2022-09-12T01:37:53;147977.59;;;15.44;100.00
6938;BME280;40040;42.706;23.372;2022-09-12T01:40:28;147982.56;;;15.46;100.00
6938;BME280;40040;42.706;23.372;2022-09-12T01:43:05;147961.47;;;15.37;100.00
6938;BME280;40040;42.706;23.372;2022-09-12T01:45:40;147961.47;;;15.37;100.00
6938;BME280;40040;42.706;23.372;2022-09-12T01:48:13;147954.00;;;15.34;100.00
6938;BME280;40040;42.706;23.372;2022-09-12T01:50:46;147941.63;;;15.29;100.00
6938;BME280;40040;42.706;23.372;2022-09-12T01:53:19;147942.88;;;15.30;100.00
6938;BME280;40040;42.706;23.372;2022-09-12T01:55:50;147941.63;;;15.29;100.00
6938;BME280;40040;42.706;23.372;2022-09-12T01:58:21;147932.97;;;15.26;100.00
6938;BME280;40040;42.706;23.372;2022-09-12T02:00:54;147914.44;;;15.18;100.00
6938;BME280;40040;42.706;23.372;2022-09-12T02:03:29;147909.47;;;15.16;100.00
6938;BME280;40040;42.706;23.372;2022-09-12T02:06:00;147914.44;;;15.18;100.00
6938;BME280;40040;42.706;23.372;2022-09-12T02:08:32;147910.66;;;15.17;100.00
6938;BME280;40040;42.706;23.372;2022-09-12T02:11:05;147812.88;;;14.77;100.00
6938;BME280;40040;42.706;23.372;2022-09-12T02:13:37;147905.75;;;15.15;100.00
6938;BME280;40040;42.706;23.372;2022-09-12T02:16:08;147882.22;;;15.05;100.00
6938;BME280;40040;42.706;23.372;2022-09-12T02:18:39;147893.38;;;15.10;100.00
6938;BME280;40040;42.706;23.372;2022-09-12T02:21:09;147878.50;;;15.04;100.00
6938;BME280;40040;42.706;23.372;2022-09-12T02:23:40;147861.16;;;14.97;100.00
6938;BME280;40040;42.706;23.372;2022-09-12T02:26:13;147848.81;;;14.92;100.00
6938;BME280;40040;42.706;23.372;2022-09-12T02:28:44;147851.25;;;14.93;100.00
6938;BME280;40040;42.706;23.372;2022-09-12T02:31:16;147845.09;;;14.90;100.00
6938;BME280;40040;42.706;23.372;2022-09-12T02:33:58;147841.38;;;14.89;100.00
6938;BME280;40040;42.706;23.372;2022-09-12T02:36:37;147833.94;;;14.86;100.00
6938;BME280;40040;42.706;23.372;2022-09-12T02:39:10;147822.81;;;14.81;100.00
6938;BME280;40040;42.706;23.372;2022-09-12T02:41:37;147741.13;;;14.48;100.00
6938;BME280;40040;42.706;23.372;2022-09-12T02:44:04;147817.84;;;14.79;100.00
6938;BME280;40040;42.706;23.372;2022-09-12T02:46:36;147716.38;;;14.38;100.00
6938;BME280;40040;42.706;23.372;2022-09-12T02:49:06;147820.34;;;14.80;100.00
6938;BME280;40040;42.706;23.372;2022-09-12T02:51:33;147816.59;;;14.79;100.00
6938;BME280;40040;42.706;23.372;2022-09-12T02:54:00;147817.84;;;14.79;100.00
6938;BME280;40040;42.706;23.372;2022-09-12T02:56:29;147827.75;;;14.83;100.00
6938;BME280;40040;42.706;23.372;2022-09-12T02:58:59;147827.75;;;14.83;100.00
6938;BME280;40040;42.706;23.372;2022-09-12T03:01:38;147828.97;;;14.84;100.00
6938;BME280;40040;42.706;23.372;2022-09-12T03:07:15;147821.56;;;14.81;100.00
6938;BME280;40040;42.706;23.372;2022-09-12T03:09:54;147803.03;;;14.73;100.00
6938;BME280;40040;42.706;23.372;2022-09-12T03:12:35;147793.09;;;14.69;100.00
6938;BME280;40040;42.706;23.372;2022-09-12T03:15:17;147794.34;;;14.70;100.00
6938;BME280;40040;42.706;23.372;2022-09-12T03:17:59;147788.16;;;14.67;100.00
6938;BME280;40040;42.706;23.372;2022-09-12T03:20:40;147767.13;;;14.58;100.00
6938;BME280;40040;42.706;23.372;2022-09-12T03:23:16;147781.94;;;14.64;100.00
6938;BME280;40040;42.706;23.372;2022-09-12T03:25:48;147781.94;;;14.64;100.00
6938;BME280;40040;42.706;23.372;2022-09-12T03:28:19;147765.88;;;14.58;100.00
6938;BME280;40040;42.706;23.372;2022-09-12T03:30:48;147691.59;;;14.28;100.00
6938;BME280;40040;42.706;23.372;2022-09-12T03:33:19;147764.59;;;14.57;100.00
6938;BME280;40040;42.706;23.372;2022-09-12T03:35:47;147744.81;;;14.49;100.00
6938;BME280;40040;42.706;23.372;2022-09-12T03:38:16;147760.91;;;14.56;100.00
6938;BME280;40040;42.706;23.372;2022-09-12T03:40:43;147765.88;;;14.58;100.00
6938;BME280;40040;42.706;23.372;2022-09-12T03:43:11;147755.94;;;14.54;100.00
6938;BME280;40040;42.706;23.372;2022-09-12T03:45:38;147749.78;;;14.51;100.00
6938;BME280;40040;42.706;23.372;2022-09-12T03:48:06;147764.59;;;14.57;100.00
6938;BME280;40040;42.706;23.372;2022-09-12T03:50:33;147769.56;;;14.59;100.00
6938;BME280;40040;42.706;23.372;2022-09-12T03:53:00;147742.38;;;14.48;100.00
6938;BME280;40040;42.706;23.372;2022-09-12T03:55:28;147760.91;;;14.56;100.00
6938;BME280;40040;42.706;23.372;2022-09-12T03:57:55;147748.53;;;14.51;100.00
6938;BME280;40040;42.706;23.372;2022-09-12T04:00:22;147736.16;;;14.46;100.00
6938;BME280;40040;42.706;23.372;2022-09-12T04:02:53;147746.09;;;14.50;100.00
6938;BME280;40040;42.706;23.372;2022-09-12T04:05:20;147743.56;;;14.49;100.00
6938;BME280;40040;42.706;23.372;2022-09-12T04:07:47;147713.88;;;14.37;100.00
6938;BME280;40040;42.706;23.372;2022-09-12T04:10:14;147681.69;;;14.24;100.00
6938;BME280;40040;42.706;23.372;2022-09-12T04:12:43;147602.50;;;13.92;100.00
6938;BME280;40040;42.706;23.372;2022-09-12T04:15:10;147691.59;;;14.28;100.00
6938;BME280;40040;42.706;23.372;2022-09-12T04:17:37;147705.22;;;14.33;100.00
6938;BME280;40040;42.706;23.372;2022-09-12T04:20:04;147713.88;;;14.37;100.00
6938;BME280;40040;42.706;23.372;2022-09-12T04:22:32;147716.38;;;14.38;100.00
6938;BME280;40040;42.706;23.372;2022-09-12T04:24:59;147666.81;;;14.18;100.00
6938;BME280;40040;42.706;23.372;2022-09-12T04:27:25;147730.00;;;14.43;100.00
6938;BME280;40040;42.706;23.372;2022-09-12T04:29:54;147732.47;;;14.44;100.00
6938;BME280;40040;42.706;23.372;2022-09-12T04:32:21;147731.22;;;14.44;100.00
6938;BME280;40040;42.706;23.372;2022-09-12T04:34:48;147746.09;;;14.50;100.00
6938;BME280;40040;42.706;23.372;2022-09-12T04:37:17;147732.47;;;14.44;100.00
6938;BME280;40040;42.706;23.372;2022-09-12T04:39:44;147746.09;;;14.50;100.00
6938;BME280;40040;42.706;23.372;2022-09-12T04:42:12;147748.53;;;14.51;100.00
6938;BME280;40040;42.706;23.372;2022-09-12T04:44:39;147738.66;;;14.47;100.00
6938;BME280;40040;42.706;23.372;2022-09-12T04:47:07;147755.94;;;14.54;100.00
6938;BME280;40040;42.706;23.372;2022-09-12T04:49:34;147763.41;;;14.57;100.00
6938;BME280;40040;42.706;23.372;2022-09-12T04:52:02;147768.38;;;14.59;100.00
6938;BME280;40040;42.706;23.372;2022-09-12T04:54:28;147763.41;;;14.57;100.00
6938;BME280;40040;42.706;23.372;2022-09-12T04:56:55;147798.06;;;14.71;100.00
6938;BME280;40040;42.706;23.372;2022-09-12T04:59:22;147807.94;;;14.75;100.00
6938;BME280;40040;42.706;23.372;2022-09-12T05:01:49;147824.06;;;14.82;100.00
6938;BME280;40040;42.706;23.372;2022-09-12T05:04:17;147824.06;;;14.82;100.00
6938;BME280;40040;42.706;23.372;2022-09-12T05:06:44;147847.56;;;14.91;100.00
6938;BME280;40040;42.706;23.372;2022-09-12T05:09:13;147862.44;;;14.97;100.00
6938;BME280;40040;42.706;23.372;2022-09-12T05:11:41;147866.13;;;14.99;100.00
6938;BME280;40040;42.706;23.372;2022-09-12T05:14:09;147887.16;;;15.07;100.00
6938;BME280;40040;42.706;23.372;2022-09-12T05:16:36;147902.00;;;15.13;100.00
6938;BME280;40040;42.706;23.372;2022-09-12T05:19:03;147910.66;;;15.17;100.00
6938;BME280;40040;42.706;23.372;2022-09-12T05:21:31;147871.09;;;15.01;100.00
6938;BME280;40040;42.706;23.372;2022-09-12T05:23:58;147926.81;;;15.23;100.00
6938;BME280;40040;42.706;23.372;2022-09-12T05:26:25;147930.50;;;15.25;100.00
6938;BME280;40040;42.706;23.372;2022-09-12T05:28:52;147966.44;;;15.39;100.00
6938;BME280;40040;42.706;23.372;2022-09-12T05:31:21;147993.69;;;15.50;100.00
6938;BME280;40040;42.706;23.372;2022-09-12T05:33:50;148028.38;;;15.64;100.00
6938;BME280;40040;42.706;23.372;2022-09-12T05:36:18;148044.47;;;15.71;100.00
6938;BME280;40040;42.706;23.372;2022-09-12T05:38:47;147993.69;;;15.50;100.00
6938;BME280;40040;42.706;23.372;2022-09-12T05:41:16;148055.63;;;15.75;100.00
6938;BME280;40040;42.706;23.372;2022-09-12T05:43:44;148060.59;;;15.77;100.00
6938;BME280;40040;42.706;23.372;2022-09-12T05:46:13;148075.44;;;15.84;100.00
6938;BME280;40040;42.706;23.372;2022-09-12T05:48:42;148112.63;;;15.99;100.00
6938;BME280;40040;42.706;23.372;2022-09-12T05:51:10;148092.78;;;15.91;100.00
6938;BME280;40040;42.706;23.372;2022-09-12T05:53:39;148186.94;;;16.29;100.00
6938;BME280;40040;42.706;23.372;2022-09-12T05:56:09;148152.25;;;16.15;100.00
6938;BME280;40040;42.706;23.372;2022-09-12T05:58:38;148132.44;;;16.07;100.00
6938;BME280;40040;42.706;23.372;2022-09-12T06:01:07;148247.72;;;16.53;100.00
6938;BME280;40040;42.706;23.372;2022-09-12T06:03:38;148258.91;;;16.58;100.00
6938;BME280;40040;42.706;23.372;2022-09-12T06:06:06;148307.19;;;16.77;100.00
6938;BME280;40040;42.706;23.372;2022-09-12T06:08:34;148302.22;;;16.75;100.00
6938;BME280;40040;42.706;23.372;2022-09-12T06:11:02;148387.81;;;17.10;100.00
6938;BME280;40040;42.706;23.372;2022-09-12T06:13:32;148446.06;;;17.34;100.00
6938;BME280;40040;42.706;23.372;2022-09-12T06:16:03;148490.78;;;17.52;100.00
6938;BME280;40040;42.706;23.372;2022-09-12T06:18:31;148527.97;;;17.67;100.00
6938;BME280;40040;42.706;23.372;2022-09-12T06:21:01;148567.66;;;17.83;100.00
6938;BME280;40040;42.706;23.372;2022-09-12T06:23:28;148620.97;;;18.05;100.00
6938;BME280;40040;42.706;23.372;2022-09-12T06:25:55;148622.22;;;18.05;100.00
6938;BME280;40040;42.706;23.372;2022-09-12T06:28:23;148623.50;;;18.06;100.00
6938;BME280;40040;42.706;23.372;2022-09-12T06:30:51;148617.25;;;18.03;100.00
6938;BME280;40040;42.706;23.372;2022-09-12T06:33:18;148614.81;;;18.02;100.00
6938;BME280;40040;42.706;23.372;2022-09-12T06:35:45;148593.72;;;17.93;100.00
6938;BME280;40040;42.706;23.372;2022-09-12T06:38:12;148607.38;;;17.99;100.00
6938;BME280;40040;42.706;23.372;2022-09-12T06:40:41;148658.22;;;18.20;100.00
6938;BME280;40040;42.706;23.372;2022-09-12T06:43:11;148680.59;;;18.29;100.00
6938;BME280;40040;42.706;23.372;2022-09-12T06:45:39;148593.72;;;17.93;100.00
6938;BME280;40040;42.706;23.372;2022-09-12T06:48:07;148676.81;;;18.27;100.00
6938;BME280;40040;42.706;23.372;2022-09-12T06:50:34;148681.78;;;18.29;100.00
6938;BME280;40040;42.706;23.372;2022-09-12T06:53:01;148712.88;;;18.42;100.00
6938;BME280;40040;42.706;23.372;2022-09-12T06:55:28;148736.47;;;18.51;100.00
6938;BME280;40040;42.706;23.372;2022-09-12T06:57:55;148735.22;;;18.51;100.00
6938;BME280;40040;42.706;23.372;2022-09-12T07:00:22;148757.56;;;18.60;100.00
6938;BME280;40040;42.706;23.372;2022-09-12T07:02:53;148804.72;;;18.79;100.00
6938;BME280;40040;42.706;23.372;2022-09-12T07:05:22;148804.72;;;18.79;100.00
6938;BME280;40040;42.706;23.372;2022-09-12T07:07:49;148801.00;;;18.77;100.00
6938;BME280;40040;42.706;23.372;2022-09-12T07:10:16;148859.34;;;19.01;100.00
6938;BME280;40040;42.706;23.372;2022-09-12T07:12:43;148879.19;;;19.09;100.00
6938;BME280;40040;42.706;23.372;2022-09-12T07:15:10;148909.03;;;19.21;100.00
6938;BME280;40040;42.706;23.372;2022-09-12T07:17:37;148869.28;;;19.05;100.00
6938;BME280;40040;42.706;23.372;2022-09-12T07:20:05;148958.72;;;19.41;100.00
6938;BME280;40040;42.706;23.372;2022-09-12T07:22:34;149005.91;;;19.60;100.00
6938;BME280;40040;42.706;23.372;2022-09-12T07:25:02;148998.47;;;19.57;100.00
6938;BME280;40040;42.706;23.372;2022-09-12T07:27:29;149105.28;;;20.00;100.00
6938;BME280;40040;42.706;23.372;2022-09-12T07:29:56;149063.06;;;19.83;100.00
6938;BME280;40040;42.706;23.372;2022-09-12T07:32:23;149145.09;;;20.17;100.00
6938;BME280;40040;42.706;23.372;2022-09-12T07:34:50;149143.84;;;20.16;100.00
6938;BME280;40040;42.706;23.372;2022-09-12T07:37:17;149161.25;;;20.23;100.00
6938;BME280;40040;42.706;23.372;2022-09-12T07:39:45;149122.69;;;20.07;100.00
6938;BME280;40040;42.706;23.372;2022-09-12T07:42:12;149204.75;;;20.41;98.17
6938;BME280;40040;42.706;23.372;2022-09-12T07:44:39;149254.44;;;20.61;96.19
6938;BME280;40040;42.706;23.372;2022-09-12T07:47:06;149265.66;;;20.65;95.86
6938;BME280;40040;42.706;23.372;2022-09-12T07:49:33;149293.00;;;20.76;95.19
6938;BME280;40040;42.706;23.372;2022-09-12T07:52:01;149285.50;;;20.73;94.64
6938;BME280;40040;42.706;23.372;2022-09-12T07:54:28;149274.34;;;20.69;94.56
6938;BME280;40040;42.706;23.372;2022-09-12T07:56:59;149249.50;;;20.59;93.34
6938;BME280;40040;42.706;23.372;2022-09-12T07:59:26;149266.91;;;20.66;94.19
6938;BME280;40040;42.706;23.372;2022-09-12T08:01:53;149301.72;;;20.80;92.83
6938;BME280;40040;42.706;23.372;2022-09-12T08:04:20;149338.97;;;20.95;92.16
6938;BME280;40040;42.706;23.372;2022-09-12T08:06:47;149371.34;;;21.08;92.27
6938;BME280;40040;42.706;23.372;2022-09-12T08:09:14;149412.38;;;21.24;89.23
6938;BME280;40040;42.706;23.372;2022-09-12T08:11:42;149459.63;;;21.44;90.42
6938;BME280;40040;42.706;23.372;2022-09-12T08:14:10;149518.06;;;21.67;88.77
6938;BME280;40040;42.706;23.372;2022-09-12T08:16:37;149518.06;;;21.67;87.46
6938;BME280;40040;42.706;23.372;2022-09-12T08:19:04;149504.44;;;21.62;87.19
6938;BME280;40040;42.706;23.372;2022-09-12T08:21:32;149513.13;;;21.65;90.46
6938;BME280;40040;42.706;23.372;2022-09-12T08:24:01;149591.50;;;21.97;88.07
6938;BME280;40040;42.706;23.372;2022-09-12T08:26:28;149627.59;;;22.11;87.66
6938;BME280;40040;42.706;23.372;2022-09-12T08:28:56;149682.34;;;22.33;88.20
6938;BME280;40040;42.706;23.372;2022-09-12T08:31:26;149720.91;;;22.49;86.45
6938;BME280;40040;42.706;23.372;2022-09-12T08:33:54;149730.88;;;22.53;86.58
6938;BME280;40040;42.706;23.372;2022-09-12T08:36:23;149647.50;;;22.19;86.67
6938;BME280;40040;42.706;23.372;2022-09-12T08:38:54;149657.47;;;22.23;84.35
6938;BME280;40040;42.706;23.372;2022-09-12T08:41:26;149628.84;;;22.12;86.36
6938;BME280;40040;42.706;23.372;2022-09-12T08:46:57;149571.63;;;21.89;85.63
6938;BME280;40040;42.706;23.372;2022-09-12T08:49:29;149518.06;;;21.67;87.05
6938;BME280;40040;42.706;23.372;2022-09-12T08:52:02;149458.38;;;21.43;85.99
6938;BME280;40040;42.706;23.372;2022-09-12T08:54:31;149600.22;;;22.00;84.30
6938;BME280;40040;42.706;23.372;2022-09-12T08:57:02;149623.88;;;22.10;83.78
6938;BME280;40040;42.706;23.372;2022-09-12T08:59:34;149642.56;;;22.17;83.75
6938;BME280;40040;42.706;23.372;2022-09-12T09:02:21;149646.28;;;22.19;82.99
6938;BME280;40040;42.706;23.372;2022-09-12T09:04:55;149734.66;;;22.55;82.83
6938;BME280;40040;42.706;23.372;2022-09-12T09:08:03;149821.78;;;22.90;80.82
6938;BME280;40040;42.706;23.372;2022-09-12T09:10:38;149696.03;;;22.39;78.98
6938;BME280;40040;42.706;23.372;2022-09-12T09:13:22;149652.47;;;22.21;80.32
6938;BME280;40040;42.706;23.372;2022-09-12T09:16:10;149592.75;;;21.97;81.92
6938;BME280;40040;42.706;23.372;2022-09-12T09:18:42;149672.41;;;22.29;80.23
6938;BME280;40040;42.706;23.372;2022-09-12T09:21:19;149669.91;;;22.28;79.91
6938;BME280;40040;42.706;23.372;2022-09-12T09:23:49;149762.06;;;22.66;81.48
6938;BME280;40040;42.706;23.372;2022-09-12T09:26:23;149801.88;;;22.82;79.72
6938;BME280;40040;42.706;23.372;2022-09-12T09:28:56;149854.19;;;23.03;78.37
6938;BME280;40040;42.706;23.372;2022-09-12T09:31:27;149880.31;;;23.13;80.25
6938;BME280;40040;42.706;23.372;2022-09-12T09:33:58;149895.22;;;23.19;78.42
6938;BME280;40040;42.706;23.372;2022-09-12T09:36:33;149884.06;;;23.15;75.81
6938;BME280;40040;42.706;23.372;2022-09-12T09:39:09;149925.16;;;23.31;78.04
6938;BME280;40040;42.706;23.372;2022-09-12T09:41:50;149869.09;;;23.09;76.59
6938;BME280;40040;42.706;23.372;2022-09-12T09:44:22;149953.84;;;23.43;78.14
6938;BME280;40040;42.706;23.372;2022-09-12T09:46:53;149976.19;;;23.52;76.46
6938;BME280;40040;42.706;23.372;2022-09-12T09:49:23;149897.75;;;23.20;76.89
6938;BME280;40040;42.706;23.372;2022-09-12T09:51:51;149975.00;;;23.52;77.27
6938;BME280;40040;42.706;23.372;2022-09-12T09:54:22;149978.72;;;23.53;77.22
6938;BME280;40040;42.706;23.372;2022-09-12T09:56:50;149960.03;;;23.46;74.29
6938;BME280;40040;42.706;23.372;2022-09-12T09:59:19;150088.28;;;23.97;75.24
6938;BME280;40040;42.706;23.372;2022-09-12T10:01:55;150048.47;;;23.81;75.00
6938;BME280;40040;42.706;23.372;2022-09-12T10:04:31;150127.00;;;24.13;74.35
6938;BME280;40040;42.706;23.372;2022-09-12T10:07:01;150242.88;;;24.60;73.38
6938;BME280;40040;42.706;23.372;2022-09-12T10:09:29;150297.75;;;24.82;70.43
6938;BME280;40040;42.706;23.372;2022-09-12T10:11:59;150215.44;;;24.48;72.64
6938;BME280;40040;42.706;23.372;2022-09-12T10:14:36;150275.31;;;24.73;69.36
6938;BME280;40040;42.706;23.372;2022-09-12T10:17:26;150231.63;;;24.55;70.38
6938;BME280;40040;42.706;23.372;2022-09-12T10:19:56;150245.34;;;24.61;68.95
6938;BME280;40040;42.706;23.372;2022-09-12T10:22:26;150272.81;;;24.72;69.25
6938;BME280;40040;42.706;23.372;2022-09-12T10:24:57;150216.69;;;24.49;68.19
6938;BME280;40040;42.706;23.372;2022-09-12T10:27:27;150310.19;;;24.87;70.48
6938;BME280;40040;42.706;23.372;2022-09-12T10:30:01;150200.53;;;24.42;69.10
6938;BME280;40040;42.706;23.372;2022-09-12T10:32:32;150290.28;;;24.79;69.12
6938;BME280;40040;42.706;23.372;2022-09-12T10:35:06;150260.31;;;24.67;68.74
6938;BME280;40040;42.706;23.372;2022-09-12T10:37:36;150362.56;;;25.08;68.55
6938;BME280;40040;42.706;23.372;2022-09-12T10:40:06;150449.88;;;25.43;68.95
6938;BME280;40040;42.706;23.372;2022-09-12T10:42:45;150489.78;;;25.59;68.85
6938;BME280;40040;42.706;23.372;2022-09-12T10:45:20;150617.03;;;26.10;66.17
6938;BME280;40040;42.706;23.372;2022-09-12T10:47:49;150624.53;;;26.13;63.10
6938;BME280;40040;42.706;23.372;2022-09-12T10:50:27;150612.03;;;26.08;59.96
6938;BME280;40040;42.706;23.372;2022-09-12T10:53:12;150523.44;;;25.73;57.99
6938;BME280;40040;42.706;23.372;2022-09-12T10:55:41;150524.72;;;25.73;59.60
6938;BME280;40040;42.706;23.372;2022-09-12T10:58:42;150565.84;;;25.90;60.29
6938;BME280;40040;42.706;23.372;2022-09-12T11:01:22;150519.72;;;25.71;60.43
6938;BME280;40040;42.706;23.372;2022-09-12T11:04:08;150408.66;;;25.26;60.92
6938;BME280;40040;42.706;23.372;2022-09-12T11:06:50;150479.81;;;25.55;60.75
6938;BME280;40040;42.706;23.372;2022-09-12T11:09:24;150550.91;;;25.84;60.68
6938;BME280;40040;42.706;23.372;2022-09-12T11:12:01;150609.53;;;26.07;61.34
6938;BME280;40040;42.706;23.372;2022-09-12T11:14:39;150632.00;;;26.16;60.59
6938;BME280;40040;42.706;23.372;2022-09-12T11:17:19;150635.75;;;26.18;59.45
6938;BME280;40040;42.706;23.372;2022-09-12T11:20:02;150442.41;;;25.40;61.48
6938;BME280;40040;42.706;23.372;2022-09-12T11:22:43;150372.53;;;25.12;60.60
6938;BME280;40040;42.706;23.372;2022-09-12T11:25:27;150331.38;;;24.95;61.14
6938;BME280;40040;42.706;23.372;2022-09-12T11:28:18;150277.81;;;24.74;59.06
6938;BME280;40040;42.706;23.372;2022-09-12T11:30:58;150267.84;;;24.70;62.28
6938;BME280;40040;42.706;23.372;2022-09-12T11:33:40;150318.94;;;24.90;60.42
6938;BME280;40040;42.706;23.372;2022-09-12T11:36:19;150282.81;;;24.76;61.33
6938;BME280;40040;42.706;23.372;2022-09-12T11:38:58;150305.22;;;24.85;61.26
6938;BME280;40040;42.706;23.372;2022-09-12T11:41:30;150265.31;;;24.69;61.80
6938;BME280;40040;42.706;23.372;2022-09-12T11:44:03;150300.22;;;24.83;58.28
6938;BME280;40040;42.706;23.372;2022-09-12T11:46:38;150178.09;;;24.33;60.35
6938;BME280;40040;42.706;23.372;2022-09-12T11:49:14;150089.56;;;23.98;63.21
6938;BME280;40040;42.706;23.372;2022-09-12T11:51:48;150129.47;;;24.14;61.63
6938;BME280;40040;42.706;23.372;2022-09-12T11:54:21;150115.75;;;24.08;62.02
6938;BME280;40040;42.706;23.372;2022-09-12T11:56:53;150123.22;;;24.11;63.02
6938;BME280;40040;42.706;23.372;2022-09-12T11:59:31;150103.31;;;24.03;61.55
6938;BME280;40040;42.706;23.372;2022-09-12T12:02:00;150043.47;;;23.79;61.85
6938;BME280;40040;42.706;23.372;2022-09-12T12:04:35;150082.09;;;23.95;63.16
6938;BME280;40040;42.706;23.372;2022-09-12T12:07:05;150129.47;;;24.14;63.81
6938;BME280;40040;42.706;23.372;2022-09-12T12:09:34;150173.09;;;24.31;62.32
6938;BME280;40040;42.706;23.372;2022-09-12T12:12:05;150155.66;;;24.24;61.83
6938;BME280;40040;42.706;23.372;2022-09-12T12:14:40;150053.47;;;23.83;61.23
6938;BME280;40040;42.706;23.372;2022-09-12T12:17:14;149952.56;;;23.42;63.80
6938;BME280;40040;42.706;23.372;2022-09-12T12:19:41;149816.81;;;22.88;63.02
6938;BME280;40040;42.706;23.372;2022-09-12T12:22:16;149836.75;;;22.96;64.03
6938;BME280;40040;42.706;23.372;2022-09-12T12:25:03;149847.94;;;23.00;66.11
6938;BME280;40040;42.706;23.372;2022-09-12T12:27:48;149957.56;;;23.45;65.69
6938;BME280;40040;42.706;23.372;2022-09-12T12:36:40;150073.38;;;23.91;62.52
6938;BME280;40040;42.706;23.372;2022-09-12T12:48:58;149901.47;;;23.22;65.08
6938;BME280;40040;42.706;23.372;2022-09-12T12:54:47;149732.13;;;22.54;67.26
6938;BME280;40040;42.706;23.372;2022-09-12T12:57:19;149664.91;;;22.26;68.63
6938;BME280;40040;42.706;23.372;2022-09-12T12:59:51;149697.28;;;22.40;69.96
6938;BME280;40040;42.706;23.372;2022-09-12T13:02:23;149730.88;;;22.53;70.40
6938;BME280;40040;42.706;23.372;2022-09-12T13:04:54;149788.19;;;22.76;70.91
6938;BME280;40040;42.706;23.372;2022-09-12T13:07:27;149816.81;;;22.88;70.46
6938;BME280;40040;42.706;23.372;2022-09-12T13:09:59;149635.06;;;22.14;70.99
6938;BME280;40040;42.706;23.372;2022-09-12T13:12:30;149709.72;;;22.45;69.22
6938;BME280;40040;42.706;23.372;2022-09-12T13:14:59;149655.00;;;22.22;71.06
6938;BME280;40040;42.706;23.372;2022-09-12T13:17:30;149582.78;;;21.93;71.70
6938;BME280;40040;42.706;23.372;2022-09-12T13:20:22;149625.13;;;22.10;70.02
6938;BME280;40040;42.706;23.372;2022-09-12T13:22:51;149640.03;;;22.16;70.13
6938;BME280;40040;42.706;23.372;2022-09-12T13:25:26;149628.84;;;22.12;68.70
6938;BME280;40040;42.706;23.372;2022-09-12T13:27:58;149622.63;;;22.09;69.29
6938;BME280;40040;42.706;23.372;2022-09-12T13:30:26;149597.75;;;21.99;71.25